createdAt,value
2017-03-12T00:00:07.932Z,5.86
2017-03-12T00:01:07.931Z,5.91
2017-03-12T00:02:07.518Z,5.88
2017-03-12T00:03:07.930Z,5.96
2017-03-12T00:04:07.466Z,5.88
2017-03-12T00:05:07.463Z,5.98
2017-03-12T00:06:07.847Z,5.85
2017-03-12T00:07:07.819Z,5.91
2017-03-12T00:08:07.398Z,5.92
2017-03-12T00:09:07.808Z,5.91
2017-03-12T00:10:06.961Z,5.92
2017-03-12T00:11:07.738Z,5.92
2017-03-12T00:12:07.741Z,5.93
2017-03-12T00:13:07.715Z,5.92
2017-03-12T00:14:07.695Z,5.85
2017-03-12T00:15:07.669Z,5.95
2017-03-12T00:16:07.653Z,5.95
2017-03-12T00:17:07.641Z,5.88
2017-03-12T00:18:07.220Z,5.91
2017-03-12T00:19:07.596Z,5.88
2017-03-12T00:20:07.587Z,5.85
2017-03-12T00:21:07.564Z,5.88
2017-03-12T00:22:07.160Z,5.74
2017-03-12T00:23:07.527Z,5.82
2017-03-12T00:24:07.119Z,5.78
2017-03-12T00:25:07.490Z,5.78
2017-03-12T00:26:07.493Z,5.77
2017-03-12T00:27:07.456Z,5.77
2017-03-12T00:28:07.434Z,5.68
2017-03-12T00:29:07.416Z,5.66
2017-03-12T00:30:07.386Z,5.75
2017-03-12T00:31:07.375Z,5.71
2017-03-12T00:32:07.351Z,5.67
2017-03-12T00:33:07.344Z,5.71
2017-03-12T00:34:07.319Z,5.67
2017-03-12T00:35:07.319Z,5.64
2017-03-12T00:36:07.302Z,5.64
2017-03-12T00:37:07.281Z,5.63
2017-03-12T00:38:07.254Z,5.56
2017-03-12T00:39:07.240Z,5.63
2017-03-12T00:40:07.240Z,5.6
2017-03-12T00:41:07.195Z,5.6
2017-03-12T00:42:07.186Z,5.55
2017-03-12T00:43:07.177Z,5.63
2017-03-12T00:44:07.142Z,5.59
2017-03-12T00:45:06.717Z,5.6
2017-03-12T00:46:07.097Z,5.57
2017-03-12T00:47:06.675Z,5.6
2017-03-12T00:48:07.062Z,5.49
2017-03-12T00:49:07.034Z,5.49
2017-03-12T00:50:07.020Z,5.53
2017-03-12T00:51:07.002Z,5.48
2017-03-12T00:52:06.981Z,5.5
2017-03-12T00:53:06.967Z,5.53
2017-03-12T00:54:06.961Z,5.48
2017-03-12T00:55:06.937Z,5.43
2017-03-12T00:56:06.919Z,5.48
2017-03-12T00:57:06.907Z,5.45
2017-03-12T00:58:06.874Z,5.48
2017-03-12T00:59:06.873Z,5.49
2017-03-12T01:00:06.850Z,5.41
2017-03-12T01:01:06.815Z,5.35
2017-03-12T01:02:06.407Z,5.41
2017-03-12T01:03:06.794Z,5.43
2017-03-12T01:04:07.008Z,5.41
2017-03-12T01:05:06.804Z,5.41
2017-03-12T01:06:06.361Z,5.48
2017-03-12T01:07:06.375Z,5.35
2017-03-12T01:08:06.895Z,5.41
2017-03-12T01:09:06.675Z,5.46
2017-03-12T01:10:06.657Z,5.43
2017-03-12T01:11:06.628Z,5.45
2017-03-12T01:12:06.282Z,5.48
2017-03-12T01:13:06.594Z,5.46
2017-03-12T01:14:06.575Z,5.45
2017-03-12T01:15:06.560Z,5.52
2017-03-12T01:16:06.562Z,5.45
2017-03-12T01:17:06.127Z,5.43
2017-03-12T01:18:06.496Z,5.41
2017-03-12T01:19:06.115Z,5.45
2017-03-12T01:20:06.480Z,5.41
2017-03-12T01:21:06.439Z,5.45
2017-03-12T01:22:06.435Z,5.41
2017-03-12T01:23:06.413Z,5.45
2017-03-12T01:24:06.390Z,5.45
2017-03-12T01:25:06.368Z,5.52
2017-03-12T01:26:06.371Z,5.46
2017-03-12T01:27:05.938Z,5.41
2017-03-12T01:28:06.317Z,5.5
2017-03-12T01:29:06.299Z,5.48
2017-03-12T01:30:06.279Z,5.49
2017-03-12T01:31:05.876Z,5.5
2017-03-12T01:32:06.245Z,5.48
2017-03-12T01:33:06.230Z,5.46
2017-03-12T01:34:06.202Z,5.46
2017-03-12T01:35:05.794Z,5.43
2017-03-12T01:36:05.767Z,5.46
2017-03-12T01:37:06.153Z,5.48
2017-03-12T01:38:06.124Z,5.45
2017-03-12T01:39:06.120Z,5.46
2017-03-12T01:40:05.698Z,5.45
2017-03-12T01:41:06.104Z,5.45
2017-03-12T01:42:06.062Z,5.48
2017-03-12T01:43:06.033Z,5.46
2017-03-12T01:44:06.061Z,5.5
2017-03-12T01:45:05.600Z,5.5
2017-03-12T01:46:05.989Z,5.43
2017-03-12T01:47:05.963Z,5.41
2017-03-12T01:48:05.946Z,5.45
2017-03-12T01:49:05.931Z,5.45
2017-03-12T01:50:05.900Z,5.45
2017-03-12T01:51:05.884Z,5.45
2017-03-12T01:52:05.871Z,5.46
2017-03-12T01:53:05.842Z,5.46
2017-03-12T01:54:05.830Z,5.45
2017-03-12T01:55:05.805Z,5.46
2017-03-12T01:56:05.408Z,5.48
2017-03-12T01:57:05.380Z,5.5
2017-03-12T01:58:05.355Z,5.49
2017-03-12T01:59:05.731Z,5.45
2017-03-12T02:00:05.314Z,5.37
2017-03-12T02:01:05.693Z,5.38
2017-03-12T02:02:05.675Z,5.37
2017-03-12T02:03:05.659Z,5.34
2017-03-12T02:04:05.638Z,5.31
2017-03-12T02:05:05.216Z,5.32
2017-03-12T02:06:05.209Z,5.3
2017-03-12T02:07:05.586Z,5.32
2017-03-12T02:08:05.558Z,5.3
2017-03-12T02:09:05.549Z,5.38
2017-03-12T02:10:05.150Z,5.38
2017-03-12T02:11:05.503Z,5.28
2017-03-12T02:12:05.488Z,5.32
2017-03-12T02:13:05.471Z,5.28
2017-03-12T02:14:05.463Z,5.35
2017-03-12T02:15:05.459Z,5.35
2017-03-12T02:16:05.021Z,5.32
2017-03-12T02:17:05.395Z,5.31
2017-03-12T02:18:05.383Z,5.31
2017-03-12T02:19:05.356Z,5.31
2017-03-12T02:20:05.340Z,5.35
2017-03-12T02:21:04.938Z,5.31
2017-03-12T02:22:05.294Z,5.28
2017-03-12T02:23:05.288Z,5.28
2017-03-12T02:24:05.264Z,5.2
2017-03-12T02:25:05.243Z,5.19
2017-03-12T02:26:05.223Z,5.12
2017-03-12T02:27:05.221Z,5.14
2017-03-12T02:28:05.206Z,5.22
2017-03-12T02:29:05.168Z,5.17
2017-03-12T02:30:05.008Z,5.22
2017-03-12T02:31:05.131Z,5.22
2017-03-12T02:32:05.123Z,5.16
2017-03-12T02:33:05.132Z,5.05
2017-03-12T02:34:05.078Z,5.02
2017-03-12T02:35:05.077Z,5.02
2017-03-12T02:36:05.061Z,4.94
2017-03-12T02:37:04.634Z,4.91
2017-03-12T02:38:05.037Z,4.99
2017-03-12T02:39:04.988Z,4.89
2017-03-12T02:40:04.988Z,4.92
2017-03-12T02:41:04.948Z,4.76
2017-03-12T02:42:04.944Z,4.86
2017-03-12T02:43:04.534Z,4.77
2017-03-12T02:44:04.953Z,4.67
2017-03-12T02:45:04.878Z,4.65
2017-03-12T02:46:04.849Z,4.7
2017-03-12T02:47:04.859Z,4.7
2017-03-12T02:48:04.819Z,4.75
2017-03-12T02:49:04.787Z,4.59
2017-03-12T02:50:04.772Z,4.65
2017-03-12T02:51:04.769Z,4.61
2017-03-12T02:52:04.736Z,4.62
2017-03-12T02:53:04.721Z,4.58
2017-03-12T02:54:04.700Z,4.52
2017-03-12T02:55:04.687Z,4.55
2017-03-12T02:56:04.668Z,4.51
2017-03-12T02:57:04.665Z,4.47
2017-03-12T02:58:04.639Z,4.44
2017-03-12T02:59:04.612Z,4.46
2017-03-12T03:00:04.607Z,4.42
2017-03-12T03:01:04.563Z,4.36
2017-03-12T03:02:04.544Z,4.37
2017-03-12T03:03:04.530Z,4.33
2017-03-12T03:04:04.522Z,4.28
2017-03-12T03:05:04.479Z,4.26
2017-03-12T03:06:04.499Z,4.21
2017-03-12T03:07:04.452Z,4.19
2017-03-12T03:08:04.631Z,4.18
2017-03-12T03:09:04.417Z,4.04
2017-03-12T03:10:04.400Z,4.06
2017-03-12T03:11:04.399Z,4.08
2017-03-12T03:12:04.374Z,3.97
2017-03-12T03:13:04.384Z,4.14
2017-03-12T03:14:04.359Z,4.06
2017-03-12T03:15:04.289Z,4.03
2017-03-12T03:16:03.881Z,4.03
2017-03-12T03:17:04.290Z,4.08
2017-03-12T03:18:04.241Z,4.1
2017-03-12T03:19:04.240Z,4.04
2017-03-12T03:20:04.210Z,4.04
2017-03-12T03:21:03.784Z,4.03
2017-03-12T03:22:04.161Z,4.07
2017-03-12T03:23:04.148Z,4.06
2017-03-12T03:24:04.117Z,4
2017-03-12T03:25:04.126Z,4.07
2017-03-12T03:26:04.075Z,4.12
2017-03-12T03:27:04.076Z,4.03
2017-03-12T03:28:04.060Z,4.04
2017-03-12T03:29:04.017Z,4.06
2017-03-12T03:30:04.015Z,4.04
2017-03-12T03:31:03.983Z,4.04
2017-03-12T03:32:03.976Z,4.01
2017-03-12T03:33:03.945Z,3.97
2017-03-12T03:34:03.530Z,4
2017-03-12T03:35:03.920Z,3.94
2017-03-12T03:36:03.896Z,3.9
2017-03-12T03:37:03.867Z,3.92
2017-03-12T03:38:03.848Z,3.88
2017-03-12T03:39:03.834Z,3.97
2017-03-12T03:40:03.835Z,3.89
2017-03-12T03:41:03.846Z,3.83
2017-03-12T03:42:03.778Z,4
2017-03-12T03:43:03.760Z,3.97
2017-03-12T03:44:03.740Z,3.97
2017-03-12T03:45:03.722Z,4
2017-03-12T03:46:03.689Z,4
2017-03-12T03:47:03.685Z,4
2017-03-12T03:48:03.270Z,4
2017-03-12T03:49:03.632Z,3.98
2017-03-12T03:50:03.248Z,4
2017-03-12T03:51:03.605Z,3.98
2017-03-12T03:52:03.576Z,3.96
2017-03-12T03:53:03.574Z,4
2017-03-12T03:54:03.549Z,4.01
2017-03-12T03:55:03.166Z,3.96
2017-03-12T03:56:03.129Z,3.97
2017-03-12T03:57:03.488Z,3.97
2017-03-12T03:58:03.463Z,3.97
2017-03-12T03:59:03.439Z,3.94
2017-03-12T04:00:03.430Z,3.92
2017-03-12T04:01:03.403Z,3.94
2017-03-12T04:02:03.393Z,3.9
2017-03-12T04:03:03.361Z,3.89
2017-03-12T04:04:03.339Z,3.86
2017-03-12T04:05:03.321Z,3.94
2017-03-12T04:06:03.298Z,3.9
2017-03-12T04:07:03.287Z,3.89
2017-03-12T04:08:03.270Z,3.9
2017-03-12T04:09:03.260Z,3.88
2017-03-12T04:10:02.844Z,3.9
2017-03-12T04:11:02.816Z,3.88
2017-03-12T04:12:03.195Z,3.92
2017-03-12T04:13:03.164Z,3.9
2017-03-12T04:14:02.749Z,3.88
2017-03-12T04:15:03.118Z,3.89
2017-03-12T04:16:02.702Z,3.76
2017-03-12T04:17:03.094Z,3.86
2017-03-12T04:18:02.666Z,3.8
2017-03-12T04:19:03.089Z,3.86
2017-03-12T04:20:02.659Z,3.89
2017-03-12T04:21:02.620Z,3.76
2017-03-12T04:22:03.049Z,3.72
2017-03-12T04:23:02.965Z,3.76
2017-03-12T04:24:02.948Z,3.75
2017-03-12T04:25:02.940Z,3.79
2017-03-12T04:26:02.896Z,3.7
2017-03-12T04:27:02.895Z,3.76
2017-03-12T04:28:02.872Z,3.72
2017-03-12T04:29:02.843Z,3.71
2017-03-12T04:30:02.829Z,3.65
2017-03-12T04:31:02.798Z,3.72
2017-03-12T04:32:02.791Z,3.67
2017-03-12T04:33:02.777Z,3.61
2017-03-12T04:34:02.751Z,3.61
2017-03-12T04:35:02.739Z,3.61
2017-03-12T04:36:02.715Z,3.53
2017-03-12T04:37:02.693Z,3.57
2017-03-12T04:38:02.657Z,3.53
2017-03-12T04:39:02.654Z,3.6
2017-03-12T04:40:02.637Z,3.57
2017-03-12T04:41:02.610Z,3.57
2017-03-12T04:42:02.664Z,3.6
2017-03-12T04:43:02.570Z,3.57
2017-03-12T04:44:02.550Z,3.6
2017-03-12T04:45:02.519Z,3.53
2017-03-12T04:46:02.519Z,3.54
2017-03-12T04:47:02.480Z,3.49
2017-03-12T04:48:02.088Z,3.54
2017-03-12T04:49:02.447Z,3.49
2017-03-12T04:50:02.446Z,3.54
2017-03-12T04:51:02.016Z,3.57
2017-03-12T04:52:02.010Z,3.49
2017-03-12T04:53:02.365Z,3.49
2017-03-12T04:54:02.355Z,3.49
2017-03-12T04:55:02.328Z,3.5
2017-03-12T04:56:02.320Z,3.44
2017-03-12T04:57:02.288Z,3.52
2017-03-12T04:58:02.260Z,3.5
2017-03-12T04:59:02.250Z,3.47
2017-03-12T05:00:02.218Z,3.47
2017-03-12T05:01:02.196Z,3.47
2017-03-12T05:02:02.194Z,3.46
2017-03-12T05:03:02.243Z,3.46
2017-03-12T05:04:02.145Z,3.52
2017-03-12T05:05:02.150Z,3.54
2017-03-12T05:06:02.103Z,3.58
2017-03-12T05:07:02.091Z,3.46
2017-03-12T05:08:01.864Z,3.52
2017-03-12T05:09:02.046Z,3.39
2017-03-12T05:10:02.035Z,3.42
2017-03-12T05:11:02.024Z,3.36
2017-03-12T05:12:01.978Z,3.42
2017-03-12T05:13:01.959Z,3.44
2017-03-12T05:14:01.946Z,3.39
2017-03-12T05:15:01.921Z,3.4
2017-03-12T05:16:01.899Z,3.43
2017-03-12T05:17:01.879Z,3.39
2017-03-12T05:18:01.466Z,3.4
2017-03-12T05:19:01.835Z,3.42
2017-03-12T05:20:01.815Z,3.42
2017-03-12T05:21:01.796Z,3.43
2017-03-12T05:22:01.772Z,3.42
2017-03-12T05:23:01.355Z,3.42
2017-03-12T05:24:01.743Z,3.42
2017-03-12T05:25:01.726Z,3.4
2017-03-12T05:26:01.731Z,3.39
2017-03-12T05:27:01.671Z,3.42
2017-03-12T05:28:01.670Z,3.43
2017-03-12T05:29:01.644Z,3.42
2017-03-12T05:30:01.221Z,3.43
2017-03-12T05:31:01.597Z,3.42
2017-03-12T05:32:01.604Z,3.36
2017-03-12T05:33:01.556Z,3.4
2017-03-12T05:34:01.541Z,3.42
2017-03-12T05:35:01.523Z,3.33
2017-03-12T05:36:01.524Z,3.42
2017-03-12T05:37:01.485Z,3.31
2017-03-12T05:38:01.466Z,3.39
2017-03-12T05:39:01.441Z,3.36
2017-03-12T05:40:01.426Z,3.42
2017-03-12T05:41:01.040Z,3.42
2017-03-12T05:42:01.377Z,3.42
2017-03-12T05:43:01.346Z,3.39
2017-03-12T05:44:01.328Z,3.42
2017-03-12T05:45:01.303Z,3.44
2017-03-12T05:46:01.313Z,3.39
2017-03-12T05:47:01.268Z,3.42
2017-03-12T05:48:01.254Z,3.39
2017-03-12T05:49:01.236Z,3.43
2017-03-12T05:50:01.259Z,3.44
2017-03-12T05:51:01.200Z,3.46
2017-03-12T05:52:01.162Z,3.44
2017-03-12T05:53:01.140Z,3.47
2017-03-12T05:54:01.131Z,3.44
2017-03-12T05:55:01.115Z,3.47
2017-03-12T05:56:01.150Z,3.46
2017-03-12T05:57:01.060Z,3.53
2017-03-12T05:58:01.073Z,3.52
2017-03-12T05:59:01.061Z,3.49
2017-03-12T06:00:01.009Z,3.53
2017-03-12T06:01:00.989Z,3.54
2017-03-12T06:02:00.961Z,3.52
2017-03-12T06:03:00.940Z,3.5
2017-03-12T06:04:00.930Z,3.5
2017-03-12T06:05:00.155Z,3.52
2017-03-12T06:06:00.882Z,3.61
2017-03-12T06:07:00.860Z,3.47
2017-03-12T06:08:00.841Z,3.57
2017-03-12T06:09:00.829Z,3.57
2017-03-12T06:10:00.807Z,3.58
2017-03-12T06:11:00.777Z,3.6
2017-03-12T06:12:00.772Z,3.58
2017-03-12T06:13:00.740Z,3.57
2017-03-12T06:14:00.320Z,3.52
2017-03-12T06:15:00.703Z,3.62
2017-03-12T06:16:00.680Z,3.62
2017-03-12T06:17:00.662Z,3.6
2017-03-12T06:18:00.638Z,3.58
2017-03-12T06:19:00.636Z,3.64
2017-03-12T06:20:00.599Z,3.54
2017-03-12T06:21:00.577Z,3.53
2017-03-12T06:22:00.162Z,3.57
2017-03-12T06:23:00.531Z,3.54
2017-03-12T06:24:00.519Z,3.61
2017-03-12T06:25:00.514Z,3.61
2017-03-12T06:26:00.078Z,3.68
2017-03-12T06:27:00.469Z,3.64
2017-03-12T06:28:00.442Z,3.62
2017-03-12T06:29:00.046Z,3.64
2017-03-12T06:30:00.401Z,3.75
2017-03-12T06:31:00.424Z,3.7
2017-03-12T06:32:00.384Z,3.83
2017-03-12T06:33:00.329Z,3.78
2017-03-12T06:34:00.306Z,3.79
2017-03-12T06:35:00.290Z,3.8
2017-03-12T06:36:00.280Z,3.85
2017-03-12T06:37:00.256Z,3.83
2017-03-12T06:38:00.239Z,3.88
2017-03-12T06:39:00.231Z,3.88
2017-03-12T06:40:00.190Z,3.96
2017-03-12T06:41:00.176Z,3.96
2017-03-12T06:41:59.755Z,4.01
2017-03-12T06:43:00.139Z,3.92
2017-03-12T06:44:00.104Z,4
2017-03-12T06:45:00.090Z,4.08
2017-03-12T06:46:00.082Z,4.12
2017-03-12T06:47:00.050Z,4.12
2017-03-12T06:48:00.026Z,4.19
2017-03-12T06:49:00.008Z,4.12
2017-03-12T06:49:59.989Z,4.19
2017-03-12T06:50:59.605Z,4.24
2017-03-12T06:51:59.962Z,4.29
2017-03-12T06:52:59.934Z,4.26
2017-03-12T06:53:59.909Z,4.29
2017-03-12T06:54:59.888Z,4.24
2017-03-12T06:55:59.880Z,4.37
2017-03-12T06:56:59.862Z,4.43
2017-03-12T06:57:59.834Z,4.4
2017-03-12T06:58:59.816Z,4.42
2017-03-12T06:59:59.794Z,4.46
2017-03-12T07:00:59.784Z,4.54
2017-03-12T07:01:59.760Z,4.54
2017-03-12T07:02:59.743Z,4.52
2017-03-12T07:03:59.721Z,4.62
2017-03-12T07:04:59.691Z,4.59
2017-03-12T07:05:59.676Z,4.57
2017-03-12T07:06:59.655Z,4.67
2017-03-12T07:07:59.839Z,4.73
2017-03-12T07:08:59.618Z,4.7
2017-03-12T07:09:59.620Z,4.73
2017-03-12T07:10:59.580Z,4.69
2017-03-12T07:11:59.553Z,4.72
2017-03-12T07:12:59.538Z,4.84
2017-03-12T07:13:59.522Z,4.79
2017-03-12T07:14:59.536Z,4.8
2017-03-12T07:15:59.495Z,4.94
2017-03-12T07:16:59.488Z,4.96
2017-03-12T07:17:59.058Z,4.92
2017-03-12T07:18:59.424Z,5.05
2017-03-12T07:19:59.415Z,5.05
2017-03-12T07:20:59.402Z,5.14
2017-03-12T07:21:59.378Z,5.09
2017-03-12T07:22:59.347Z,5.14
2017-03-12T07:23:59.349Z,5.17
2017-03-12T07:24:59.332Z,5.16
2017-03-12T07:25:59.289Z,5.2
2017-03-12T07:26:59.265Z,5.28
2017-03-12T07:27:59.272Z,5.32
2017-03-12T07:28:59.234Z,5.4
2017-03-12T07:29:59.228Z,5.34
2017-03-12T07:30:59.222Z,5.45
2017-03-12T07:31:59.170Z,5.45
2017-03-12T07:32:59.159Z,5.49
2017-03-12T07:33:59.185Z,5.5
2017-03-12T07:34:58.719Z,5.57
2017-03-12T07:35:59.159Z,5.55
2017-03-12T07:36:58.712Z,5.67
2017-03-12T07:37:59.077Z,5.66
2017-03-12T07:38:59.056Z,5.71
2017-03-12T07:39:59.034Z,5.71
2017-03-12T07:40:59.031Z,5.71
2017-03-12T07:41:58.602Z,5.78
2017-03-12T07:42:58.989Z,5.82
2017-03-12T07:43:59.004Z,5.86
2017-03-12T07:44:58.932Z,5.91
2017-03-12T07:45:58.916Z,6
2017-03-12T07:46:58.502Z,5.88
2017-03-12T07:47:58.902Z,5.92
2017-03-12T07:48:58.911Z,6.09
2017-03-12T07:49:58.855Z,6.06
2017-03-12T07:50:58.833Z,6.11
2017-03-12T07:51:58.812Z,6.18
2017-03-12T07:52:58.786Z,6.22
2017-03-12T07:53:58.388Z,6.29
2017-03-12T07:54:58.367Z,6.35
2017-03-12T07:55:58.739Z,6.32
2017-03-12T07:56:58.718Z,6.3
2017-03-12T07:57:58.703Z,6.48
2017-03-12T07:58:58.693Z,6.54
2017-03-12T07:59:58.671Z,6.65
2017-03-12T08:00:58.652Z,6.63
2017-03-12T08:01:58.624Z,6.79
2017-03-12T08:02:58.609Z,6.73
2017-03-12T08:03:58.586Z,6.77
2017-03-12T08:04:58.579Z,6.79
2017-03-12T08:05:58.604Z,6.9
2017-03-12T08:06:58.552Z,6.83
2017-03-12T08:07:58.522Z,6.99
2017-03-12T08:08:58.502Z,7.01
2017-03-12T08:09:58.480Z,7.09
2017-03-12T08:10:58.459Z,7.16
2017-03-12T08:11:58.447Z,7.19
2017-03-12T08:12:58.441Z,7.31
2017-03-12T08:13:58.426Z,7.34
2017-03-12T08:14:58.007Z,7.4
2017-03-12T08:15:58.384Z,7.47
2017-03-12T08:16:58.378Z,7.55
2017-03-12T08:17:58.384Z,7.58
2017-03-12T08:18:58.575Z,7.59
2017-03-12T08:19:57.910Z,7.75
2017-03-12T08:20:58.286Z,7.77
2017-03-12T08:21:58.268Z,7.79
2017-03-12T08:22:58.252Z,7.89
2017-03-12T08:23:58.239Z,7.84
2017-03-12T08:24:58.235Z,8.1
2017-03-12T08:25:58.217Z,8.63
2017-03-12T08:26:58.226Z,9.49
2017-03-12T08:27:58.198Z,10.19
2017-03-12T08:28:58.161Z,10.96
2017-03-12T08:29:58.164Z,11.54
2017-03-12T08:30:58.142Z,12.04
2017-03-12T08:31:58.117Z,12.57
2017-03-12T08:32:58.123Z,12.99
2017-03-12T08:33:58.102Z,13.17
2017-03-12T08:34:58.072Z,13.33
2017-03-12T08:35:58.060Z,13.77
2017-03-12T08:36:58.048Z,14.21
2017-03-12T08:37:58.041Z,14.5
2017-03-12T08:38:58.030Z,14.46
2017-03-12T08:39:58.017Z,14.49
2017-03-12T08:40:58.001Z,14.43
2017-03-12T08:41:58.001Z,14.68
2017-03-12T08:42:57.989Z,14.91
2017-03-12T08:43:57.963Z,14.84
2017-03-12T08:44:57.968Z,14.74
2017-03-12T08:45:57.957Z,14.71
2017-03-12T08:46:57.938Z,14.56
2017-03-12T08:47:57.921Z,14.65
2017-03-12T08:48:57.912Z,14.81
2017-03-12T08:49:57.901Z,14.93
2017-03-12T08:50:57.900Z,14.83
2017-03-12T08:51:57.891Z,14.84
2017-03-12T08:52:57.876Z,14.78
2017-03-12T08:53:57.878Z,14.72
2017-03-12T08:54:57.870Z,14.71
2017-03-12T08:55:57.864Z,14.65
2017-03-12T08:56:57.831Z,14.54
2017-03-12T08:57:57.822Z,14.47
2017-03-12T08:58:57.810Z,14.49
2017-03-12T08:59:57.824Z,14.49
2017-03-12T09:00:57.397Z,14.6
2017-03-12T09:01:57.818Z,14.54
2017-03-12T09:02:57.805Z,14.46
2017-03-12T09:03:57.766Z,14.32
2017-03-12T09:04:57.762Z,14.34
2017-03-12T09:05:57.760Z,14.28
2017-03-12T09:06:57.758Z,14.09
2017-03-12T09:07:58.139Z,14.07
2017-03-12T09:08:57.337Z,14.47
2017-03-12T09:09:57.722Z,14.78
2017-03-12T09:10:57.729Z,14.95
2017-03-12T09:11:57.702Z,14.94
2017-03-12T09:12:57.710Z,14.78
2017-03-12T09:13:57.697Z,14.49
2017-03-12T09:14:57.680Z,14.49
2017-03-12T09:15:57.676Z,14.8
2017-03-12T09:16:57.258Z,14.65
2017-03-12T09:17:57.699Z,14.78
2017-03-12T09:18:57.640Z,14.64
2017-03-12T09:19:57.630Z,14.47
2017-03-12T09:20:57.638Z,14.29
2017-03-12T09:21:57.636Z,14.24
2017-03-12T09:22:57.613Z,14.47
2017-03-12T09:23:57.602Z,14.61
2017-03-12T09:24:57.603Z,14.56
2017-03-12T09:25:57.599Z,14.52
2017-03-12T09:26:57.576Z,14.39
2017-03-12T09:27:57.569Z,14.6
2017-03-12T09:28:57.559Z,14.81
2017-03-12T09:29:57.568Z,14.99
2017-03-12T09:30:57.556Z,15.12
2017-03-12T09:31:57.550Z,15.41
2017-03-12T09:32:57.133Z,15.45
2017-03-12T09:33:57.522Z,15.36
2017-03-12T09:34:57.517Z,15.46
2017-03-12T09:35:57.514Z,15.66
2017-03-12T09:36:57.505Z,15.64
2017-03-12T09:37:57.507Z,15.6
2017-03-12T09:38:57.490Z,15.66
2017-03-12T09:39:57.484Z,15.56
2017-03-12T09:40:57.464Z,15.39
2017-03-12T09:41:57.471Z,15.2
2017-03-12T09:42:56.676Z,15.08
2017-03-12T09:43:57.469Z,14.8
2017-03-12T09:44:57.453Z,14.8
2017-03-12T09:45:57.437Z,14.88
2017-03-12T09:46:57.433Z,14.99
2017-03-12T09:47:57.424Z,15.33
2017-03-12T09:48:57.415Z,15.49
2017-03-12T09:49:57.400Z,15.67
2017-03-12T09:50:57.021Z,15.7
2017-03-12T09:51:57.393Z,15.61
2017-03-12T09:52:57.383Z,15.84
2017-03-12T09:53:57.416Z,15.92
2017-03-12T09:54:57.370Z,15.89
2017-03-12T09:55:57.353Z,15.94
2017-03-12T09:56:57.363Z,15.66
2017-03-12T09:57:56.950Z,15.49
2017-03-12T09:58:57.338Z,15.3
2017-03-12T09:59:57.347Z,15.27
2017-03-12T10:00:57.327Z,15.21
2017-03-12T10:01:57.330Z,14.99
2017-03-12T10:02:57.302Z,14.87
2017-03-12T10:03:57.298Z,15.01
2017-03-12T10:04:57.287Z,15.24
2017-03-12T10:05:57.279Z,15.49
2017-03-12T10:06:57.273Z,15.66
2017-03-12T10:07:57.260Z,15.7
2017-03-12T10:08:57.273Z,15.81
2017-03-12T10:09:57.260Z,15.93
2017-03-12T10:10:57.243Z,16.04
2017-03-12T10:11:57.249Z,16.33
2017-03-12T10:12:57.284Z,16.35
2017-03-12T10:13:57.232Z,16.22
2017-03-12T10:14:57.217Z,15.92
2017-03-12T10:15:57.219Z,15.72
2017-03-12T10:16:57.236Z,15.63
2017-03-12T10:17:57.204Z,15.67
2017-03-12T10:18:57.186Z,15.63
2017-03-12T10:19:57.185Z,15.7
2017-03-12T10:20:57.177Z,15.82
2017-03-12T10:21:57.179Z,15.99
2017-03-12T10:22:57.185Z,16.41
2017-03-12T10:23:57.167Z,16.75
2017-03-12T10:24:57.164Z,16.67
2017-03-12T10:25:57.147Z,16.81
2017-03-12T10:26:57.128Z,16.59
2017-03-12T10:27:57.132Z,16.41
2017-03-12T10:28:57.123Z,16.56
2017-03-12T10:29:57.131Z,16.52
2017-03-12T10:30:57.117Z,16.53
2017-03-12T10:31:57.105Z,16.44
2017-03-12T10:32:57.110Z,15.93
2017-03-12T10:33:57.093Z,15.75
2017-03-12T10:34:57.120Z,15.68
2017-03-12T10:35:57.073Z,15.89
2017-03-12T10:36:56.748Z,16.01
2017-03-12T10:37:57.103Z,16.18
2017-03-12T10:38:57.067Z,16.26
2017-03-12T10:39:57.058Z,16.37
2017-03-12T10:40:56.649Z,16.33
2017-03-12T10:41:57.044Z,16.37
2017-03-12T10:42:57.041Z,16.6
2017-03-12T10:43:57.144Z,16.56
2017-03-12T10:44:57.122Z,16.6
2017-03-12T10:45:56.645Z,16.65
2017-03-12T10:46:57.025Z,16.96
2017-03-12T10:47:57.014Z,17.1
2017-03-12T10:48:56.625Z,17.38
2017-03-12T10:49:57.006Z,17.71
2017-03-12T10:50:56.999Z,17.97
2017-03-12T10:51:57.020Z,18.15
2017-03-12T10:52:57.016Z,18.24
2017-03-12T10:53:57.016Z,18.13
2017-03-12T10:54:57.036Z,18.02
2017-03-12T10:55:56.985Z,17.73
2017-03-12T10:56:56.976Z,17.69
2017-03-12T10:57:56.969Z,17.67
2017-03-12T10:58:56.971Z,17.81
2017-03-12T10:59:57.072Z,17.84
2017-03-12T11:00:57.019Z,17.97
2017-03-12T11:01:56.951Z,18.25
2017-03-12T11:02:56.944Z,18.58
2017-03-12T11:03:56.945Z,18.84
2017-03-12T11:04:56.998Z,19.25
2017-03-12T11:05:56.948Z,19.31
2017-03-12T11:06:56.935Z,19.24
2017-03-12T11:07:56.926Z,19.29
2017-03-12T11:08:56.926Z,19.4
2017-03-12T11:09:56.538Z,19.32
2017-03-12T11:10:56.934Z,19.02
2017-03-12T11:11:56.915Z,19.05
2017-03-12T11:12:56.915Z,19.08
2017-03-12T11:13:56.916Z,19.31
2017-03-12T11:14:56.917Z,19.38
2017-03-12T11:15:56.924Z,19.38
2017-03-12T11:16:56.904Z,19.39
2017-03-12T11:17:56.918Z,19.53
2017-03-12T11:18:56.911Z,19.6
2017-03-12T11:19:56.897Z,19.36
2017-03-12T11:20:56.906Z,19.32
2017-03-12T11:21:56.888Z,19.28
2017-03-12T11:22:56.885Z,19.36
2017-03-12T11:23:56.489Z,19.4
2017-03-12T11:24:56.878Z,19.54
2017-03-12T11:25:56.879Z,19.15
2017-03-12T11:26:56.879Z,19.25
2017-03-12T11:27:56.871Z,19.32
2017-03-12T11:28:56.866Z,19.32
2017-03-12T11:29:56.936Z,19.39
2017-03-12T11:30:56.862Z,18.8
2017-03-12T11:31:56.474Z,18.49
2017-03-12T11:32:56.865Z,18.76
2017-03-12T11:33:56.859Z,19.06
2017-03-12T11:34:56.867Z,19.23
2017-03-12T11:35:56.466Z,19.31
2017-03-12T11:36:56.852Z,19.53
2017-03-12T11:37:56.484Z,19.66
2017-03-12T11:38:56.855Z,19.5
2017-03-12T11:39:56.865Z,19.32
2017-03-12T11:40:56.492Z,18.95
2017-03-12T11:41:56.845Z,19.01
2017-03-12T11:42:56.859Z,19.11
2017-03-12T11:43:56.448Z,19.06
2017-03-12T11:44:56.850Z,18.5
2017-03-12T11:45:56.837Z,18.36
2017-03-12T11:46:56.443Z,18.43
2017-03-12T11:47:56.850Z,18.27
2017-03-12T11:48:56.828Z,18.61
2017-03-12T11:49:56.846Z,18.97
2017-03-12T11:50:56.832Z,19.42
2017-03-12T11:51:56.834Z,19.95
2017-03-12T11:52:56.835Z,20.25
2017-03-12T11:53:56.835Z,19.95
2017-03-12T11:54:56.840Z,19.72
2017-03-12T11:55:56.831Z,19.87
2017-03-12T11:56:56.930Z,20.42
2017-03-12T11:57:56.844Z,20.84
2017-03-12T11:58:56.842Z,20.98
2017-03-12T11:59:56.836Z,21.02
2017-03-12T12:00:56.430Z,21.19
2017-03-12T12:01:56.828Z,21.21
2017-03-12T12:02:56.878Z,21.39
2017-03-12T12:03:56.827Z,21.6
2017-03-12T12:04:56.833Z,21.9
2017-03-12T12:05:56.852Z,22.04
2017-03-12T12:06:56.824Z,22.14
2017-03-12T12:07:56.837Z,22.28
2017-03-12T12:08:56.844Z,21.74
2017-03-12T12:09:56.825Z,21.63
2017-03-12T12:10:56.836Z,21.57
2017-03-12T12:11:56.825Z,21.21
2017-03-12T12:12:56.841Z,20.47
2017-03-12T12:13:56.844Z,19.9
2017-03-12T12:14:56.831Z,19.55
2017-03-12T12:15:56.837Z,19.76
2017-03-12T12:16:56.839Z,20.1
2017-03-12T12:17:56.830Z,20.62
2017-03-12T12:18:56.831Z,21.17
2017-03-12T12:19:56.846Z,21.48
2017-03-12T12:20:56.443Z,21.98
2017-03-12T12:21:56.846Z,21.79
2017-03-12T12:22:56.854Z,21.75
2017-03-12T12:23:56.844Z,21.97
2017-03-12T12:24:56.867Z,21.53
2017-03-12T12:25:56.844Z,21.01
2017-03-12T12:26:56.867Z,20.49
2017-03-12T12:27:56.848Z,20.46
2017-03-12T12:28:56.850Z,20.68
2017-03-12T12:29:56.851Z,21.13
2017-03-12T12:30:56.863Z,21.23
2017-03-12T12:31:56.866Z,21.54
2017-03-12T12:32:56.862Z,21.79
2017-03-12T12:33:56.862Z,22.16
2017-03-12T12:34:56.883Z,22.56
2017-03-12T12:35:56.871Z,22.62
2017-03-12T12:36:56.876Z,22.72
2017-03-12T12:37:56.885Z,22.82
2017-03-12T12:38:56.922Z,23.12
2017-03-12T12:39:56.909Z,23.11
2017-03-12T12:40:56.892Z,23.11
2017-03-12T12:41:56.490Z,22.94
2017-03-12T12:42:56.897Z,22.46
2017-03-12T12:43:56.896Z,22.23
2017-03-12T12:44:56.885Z,22.27
2017-03-12T12:45:56.893Z,21.99
2017-03-12T12:46:56.889Z,22.16
2017-03-12T12:47:56.895Z,22.64
2017-03-12T12:48:56.494Z,22.83
2017-03-12T12:49:56.498Z,23.02
2017-03-12T12:50:56.906Z,23.32
2017-03-12T12:51:56.902Z,23.53
2017-03-12T12:52:56.906Z,23.76
2017-03-12T12:53:56.921Z,23.67
2017-03-12T12:54:56.917Z,23.14
2017-03-12T12:55:56.927Z,22.72
2017-03-12T12:56:56.912Z,22.78
2017-03-12T12:57:56.923Z,22.92
2017-03-12T12:58:56.934Z,23.23
2017-03-12T12:59:56.929Z,23.38
2017-03-12T13:00:56.542Z,23.42
2017-03-12T13:01:56.942Z,23.19
2017-03-12T13:02:56.939Z,23.24
2017-03-12T13:03:56.941Z,23.23
2017-03-12T13:04:56.544Z,23.52
2017-03-12T13:05:56.562Z,23.83
2017-03-12T13:06:56.978Z,24.04
2017-03-12T13:07:56.946Z,24.17
2017-03-12T13:08:56.945Z,24.2
2017-03-12T13:09:56.956Z,24.41
2017-03-12T13:10:56.594Z,23.85
2017-03-12T13:11:56.699Z,22.83